RJSC

Yamagata Airport

Airport
ICAO code
RJSC
IATA Code
GAJ
Summary
ICAO Region
APAC
ICAO Territory
Location

Higashine, Yamagata Prefecture

Serving
Yamagata
Elevation
345 ft
Coordinates
38° 24' 38" N , 140° 21' 59" E
KCC
Metar
RJSC 150000Z VRB02KT CAVOK 25/18 Q1008

Airport 23 km north of the city of Yamagata, Japan.

Climatology

Humid subtropical climate (Köppen climate classification Cfa).

Runways

Designator Length Width Surface Rops
1/19 1999 46 ASP Yes/Yes

Airport map

Aerial View

SKYbrary Partners:

Safety knowledge contributed by: